createdAt,value
2022-08-28T00:00:40.838Z,97018.57
2022-08-28T00:03:10.719Z,97015.79
2022-08-28T00:05:39.923Z,97018.33
2022-08-28T00:08:12.805Z,97020.79
2022-08-28T00:10:41.932Z,97022.55
2022-08-28T00:13:18.577Z,97025.87
2022-08-28T00:15:48.095Z,97027.33
2022-08-28T00:18:16.619Z,97025.95
2022-08-28T00:20:46.682Z,97027.73
2022-08-28T00:23:14.787Z,97026.11
2022-08-28T00:25:42.754Z,97026.25
2022-08-28T00:28:23.389Z,97027.39
2022-08-28T00:30:55.457Z,97027.04
2022-08-28T00:33:25.476Z,97026.48
2022-08-28T00:35:54.574Z,97026.70
2022-08-28T00:38:23.289Z,97031.84
2022-08-28T00:40:56.041Z,97031.36
2022-08-28T00:43:33.911Z,97031.96
2022-08-28T00:46:03.846Z,97030.60
2022-08-28T00:48:32.937Z,97030.41
2022-08-28T00:51:20.405Z,97030.69
2022-08-28T00:53:48.549Z,97025.48
2022-08-28T00:56:17.380Z,97020.16
2022-08-28T00:58:46.681Z,97022.66
2022-08-28T01:01:15.042Z,97022.88
2022-08-28T01:03:45.279Z,97022.30
2022-08-28T01:06:15.127Z,97026.16
2022-08-28T01:08:50.427Z,97026.36
2022-08-28T01:11:19.739Z,97028.89
2022-08-28T01:13:48.689Z,97032.81
2022-08-28T01:16:18.377Z,97031.79
2022-08-28T01:18:47.103Z,97033.77
2022-08-28T01:21:20.376Z,97031.37
2022-08-28T01:23:52.082Z,97031.63
2022-08-28T01:26:21.088Z,97033.22
2022-08-28T01:28:49.019Z,97035.28
2022-08-28T01:31:17.258Z,97038.36
2022-08-28T01:33:46.615Z,97039.23
2022-08-28T01:36:16.016Z,97040.61
2022-08-28T01:38:45.726Z,97043.08
2022-08-28T01:41:14.167Z,97041.99
2022-08-28T01:43:43.416Z,97041.50
2022-08-28T01:46:12.700Z,97042.96
2022-08-28T01:48:42.764Z,97040.14
2022-08-28T01:51:11.872Z,97038.35
2022-08-28T01:53:41.545Z,97040.13
2022-08-28T01:56:14.315Z,97035.52
2022-08-28T01:58:42.328Z,97032.95
2022-08-28T02:01:14.281Z,97031.93
2022-08-28T02:03:45.137Z,97032.38
2022-08-28T02:06:13.738Z,97031.80
2022-08-28T02:08:42.405Z,97033.54
2022-08-28T02:11:10.632Z,97031.67
2022-08-28T02:13:39.969Z,97031.67
2022-08-28T02:16:09.326Z,97032.52
2022-08-28T02:18:38.131Z,97031.48
2022-08-28T02:21:06.811Z,97038.06
2022-08-28T02:23:35.083Z,97039.66
2022-08-28T02:26:03.413Z,97037.91
2022-08-28T02:28:31.270Z,97035.75
2022-08-28T02:30:59.879Z,97037.11
2022-08-28T02:33:28.093Z,97037.37
2022-08-28T02:35:57.039Z,97035.67
2022-08-28T02:38:24.907Z,97035.77
2022-08-28T02:40:53.307Z,97039.54
2022-08-28T02:43:21.329Z,97040.81
2022-08-28T02:45:49.587Z,97038.50
2022-08-28T02:48:17.749Z,97039.77
2022-08-28T02:50:47.209Z,97041.92
2022-08-28T02:53:15.447Z,97037.88
2022-08-28T02:55:43.319Z,97038.46
2022-08-28T02:58:11.404Z,97040.98
2022-08-28T03:00:40.314Z,97039.76
2022-08-28T03:03:08.809Z,97040.89
2022-08-28T03:05:36.814Z,97040.65
2022-08-28T03:08:05.186Z,97037.24
2022-08-28T03:10:33.373Z,97035.33
2022-08-28T03:13:01.381Z,97033.10
2022-08-28T03:15:29.431Z,97037.77
2022-08-28T03:17:57.480Z,97040.50
2022-08-28T03:20:25.402Z,97043.88
2022-08-28T03:23:11.965Z,97044.70
2022-08-28T03:25:39.940Z,97047.14
2022-08-28T03:28:07.802Z,97048.16
2022-08-28T03:30:35.746Z,97052.17
2022-08-28T03:33:04.041Z,97057.73
2022-08-28T03:35:32.269Z,97061.20
2022-08-28T03:38:00.318Z,97065.69
2022-08-28T03:40:28.347Z,97067.00
2022-08-28T03:42:56.420Z,97067.27
2022-08-28T03:45:24.507Z,97063.45
2022-08-28T03:47:53.704Z,97067.38
2022-08-28T03:50:21.725Z,97068.36
2022-08-28T03:52:49.744Z,97071.16
2022-08-28T03:55:19.903Z,97071.94
2022-08-28T03:57:48.178Z,97070.63
2022-08-28T04:00:16.582Z,97072.35
2022-08-28T04:02:44.731Z,97076.19
2022-08-28T04:05:13.036Z,97076.55
2022-08-28T04:07:40.941Z,97079.55
2022-08-28T04:10:09.272Z,97082.72
2022-08-28T04:12:37.394Z,97087.30
2022-08-28T04:15:08.460Z,97089.87
2022-08-28T04:17:37.954Z,97092.45
2022-08-28T04:20:07.048Z,97091.34
2022-08-28T04:22:35.249Z,97091.84
2022-08-28T04:25:03.747Z,97094.58
2022-08-28T04:27:34.017Z,97098.32
2022-08-28T04:30:02.156Z,97100.71
2022-08-28T04:32:30.232Z,97102.73
2022-08-28T04:34:58.467Z,97105.54
2022-08-28T04:37:27.974Z,97106.40
2022-08-28T04:39:56.450Z,97108.92
2022-08-28T04:42:24.432Z,97108.93
2022-08-28T04:44:56.823Z,97112.13
2022-08-28T04:47:24.739Z,97116.84
2022-08-28T04:49:52.584Z,97119.48
2022-08-28T04:52:20.577Z,97116.09
2022-08-28T04:54:49.793Z,97112.36
2022-08-28T04:57:17.872Z,97110.91
2022-08-28T04:59:45.951Z,97112.86
2022-08-28T05:02:14.147Z,97115.60
2022-08-28T05:04:42.259Z,97114.45
2022-08-28T05:07:10.184Z,97115.31
2022-08-28T05:09:38.256Z,97115.95
2022-08-28T05:12:06.387Z,97115.18
2022-08-28T05:14:35.541Z,97112.36
2022-08-28T05:17:03.397Z,97109.23
2022-08-28T05:19:32.750Z,97108.59
2022-08-28T05:22:00.766Z,97110.66
2022-08-28T05:24:28.932Z,97111.13
2022-08-28T05:26:57.519Z,97111.05
2022-08-28T05:29:25.801Z,97109.29
2022-08-28T05:31:53.730Z,97112.40
2022-08-28T05:34:21.736Z,97113.95
2022-08-28T05:36:49.662Z,97115.64
2022-08-28T05:39:17.682Z,97113.77
2022-08-28T05:41:46.155Z,97113.61
2022-08-28T05:44:15.240Z,97115.98
2022-08-28T05:46:44.720Z,97113.77
2022-08-28T05:49:13.665Z,97115.98
2022-08-28T05:51:42.495Z,97119.64
2022-08-28T05:54:11.206Z,97122.09
2022-08-28T05:56:40.632Z,97123.41
2022-08-28T05:59:09.298Z,97128.50
2022-08-28T06:01:45.100Z,97124.63
2022-08-28T06:04:25.763Z,97122.84
2022-08-28T06:06:54.464Z,97127.82
2022-08-28T06:09:29.070Z,97128.71
2022-08-28T06:11:59.849Z,97125.16
2022-08-28T06:14:28.128Z,97127.80
2022-08-28T06:16:56.680Z,97127.48
2022-08-28T06:19:26.309Z,97131.29
2022-08-28T06:21:55.285Z,97128.40
2022-08-28T06:24:23.250Z,97130.68
2022-08-28T06:26:52.614Z,97135.36
2022-08-28T06:29:22.599Z,97137.88
2022-08-28T06:31:54.002Z,97141.95
2022-08-28T06:34:22.065Z,97142.58
2022-08-28T06:36:53.816Z,97139.11
2022-08-28T06:39:22.977Z,97137.13
2022-08-28T06:41:51.347Z,97138.70
2022-08-28T06:44:20.569Z,97139.15
2022-08-28T06:46:49.716Z,97138.35
2022-08-28T06:49:17.921Z,97134.58
2022-08-28T06:51:45.755Z,97135.09
2022-08-28T06:54:18.441Z,97138.63
2022-08-28T06:56:50.439Z,97142.23
2022-08-28T06:59:18.265Z,97139.73
2022-08-28T07:01:46.155Z,97140.23
2022-08-28T07:04:14.784Z,97138.05
2022-08-28T07:06:47.149Z,97136.26
2022-08-28T07:09:16.445Z,97133.05
2022-08-28T07:11:49.144Z,97129.32
2022-08-28T07:14:16.944Z,97123.73
2022-08-28T07:16:45.070Z,97124.38
2022-08-28T07:19:13.835Z,97122.70
2022-08-28T07:21:43.679Z,97116.39
2022-08-28T07:24:12.979Z,97114.27
2022-08-28T07:26:41.747Z,97110.79
2022-08-28T07:29:11.425Z,97111.04
2022-08-28T07:31:42.230Z,97108.98
2022-08-28T07:34:11.172Z,97105.84
2022-08-28T07:36:39.680Z,97101.33
2022-08-28T07:39:08.492Z,97102.38
2022-08-28T07:41:39.402Z,97099.86
2022-08-28T07:44:26.724Z,97106.69
2022-08-28T07:46:55.319Z,97108.97
2022-08-28T07:49:23.980Z,97109.02
2022-08-28T07:51:54.322Z,97109.92
2022-08-28T07:54:23.182Z,97113.46
2022-08-28T07:56:51.981Z,97112.05
2022-08-28T07:59:20.310Z,97111.36
2022-08-28T08:01:51.524Z,97110.54
2022-08-28T08:04:20.535Z,97106.94
2022-08-28T08:06:48.710Z,97109.08
2022-08-28T08:09:18.215Z,97107.69
2022-08-28T08:11:46.922Z,97101.33
2022-08-28T08:14:15.679Z,97099.02
2022-08-28T08:16:47.503Z,97097.72
2022-08-28T08:19:16.997Z,97096.16
2022-08-28T08:21:45.839Z,97097.59
2022-08-28T08:24:20.882Z,97097.53
2022-08-28T08:26:56.508Z,97100.95
2022-08-28T08:29:33.324Z,97102.58
2022-08-28T08:32:06.240Z,97107.10
2022-08-28T08:34:36.585Z,97107.23
2022-08-28T08:37:05.915Z,97107.48
2022-08-28T08:39:34.339Z,97102.36
2022-08-28T08:42:04.482Z,97106.73
2022-08-28T08:44:34.707Z,97109.30
2022-08-28T08:47:02.987Z,97104.73
2022-08-28T08:49:34.848Z,97106.70
2022-08-28T08:52:11.645Z,97104.84
2022-08-28T08:54:59.243Z,97102.38
2022-08-28T08:57:28.041Z,97106.05
2022-08-28T08:59:55.945Z,97103.98
2022-08-28T09:02:31.256Z,97105.56
2022-08-28T09:05:07.328Z,97107.18
2022-08-28T09:07:42.074Z,97106.20
2022-08-28T09:10:12.436Z,97110.33
2022-08-28T09:12:50.168Z,97109.27
2022-08-28T09:15:24.294Z,97108.45
2022-08-28T09:17:58.800Z,97110.53
2022-08-28T09:20:31.481Z,97111.73
2022-08-28T09:23:02.091Z,97113.23
2022-08-28T09:25:47.706Z,97112.58
2022-08-28T09:28:21.886Z,97113.11
2022-08-28T09:30:54.705Z,97112.44
2022-08-28T09:33:34.489Z,97112.61
2022-08-28T09:36:23.300Z,97112.02
2022-08-28T09:39:09.941Z,97113.54
2022-08-28T09:42:16.376Z,97108.98
2022-08-28T09:44:52.047Z,97109.34
2022-08-28T09:47:46.382Z,97105.29
2022-08-28T09:50:27.288Z,97106.64
2022-08-28T09:52:57.082Z,97106.65
2022-08-28T09:55:36.693Z,97105.59
2022-08-28T09:58:05.536Z,97102.59
2022-08-28T10:00:35.434Z,97101.12
2022-08-28T10:03:14.786Z,97100.76
2022-08-28T10:05:51.863Z,97097.35
2022-08-28T10:08:31.818Z,97100.14
2022-08-28T10:11:04.104Z,97099.73
2022-08-28T10:13:38.124Z,97096.66
2022-08-28T10:16:24.921Z,97100.10
2022-08-28T10:19:17.790Z,97096.11
2022-08-28T10:21:48.432Z,97095.13
2022-08-28T10:24:24.250Z,97093.16
2022-08-28T10:27:14.176Z,97092.80
2022-08-28T10:29:54.218Z,97090.73
2022-08-28T10:32:24.981Z,97092.34
2022-08-28T10:34:55.085Z,97095.06
2022-08-28T10:37:36.530Z,97094.02
2022-08-28T10:40:24.832Z,97091.48
2022-08-28T10:42:55.646Z,97089.92
2022-08-28T10:45:25.070Z,97086.65
2022-08-28T10:48:01.168Z,97087.59
2022-08-28T10:50:42.612Z,97088.34
2022-08-28T10:53:14.471Z,97085.27
2022-08-28T10:55:58.299Z,97088.20
2022-08-28T10:58:27.529Z,97087.10
2022-08-28T11:01:04.872Z,97083.23
2022-08-28T11:03:40.552Z,97080.45
2022-08-28T11:06:25.056Z,97080.36
2022-08-28T11:08:55.178Z,97084.08
2022-08-28T11:11:42.668Z,97083.59
2022-08-28T11:14:22.520Z,97076.20
2022-08-28T11:16:51.680Z,97075.98
2022-08-28T11:19:19.480Z,97076.88
2022-08-28T11:21:47.414Z,97073.70
2022-08-28T11:24:28.113Z,97072.73
2022-08-28T11:27:05.322Z,97070.71
2022-08-28T11:29:51.999Z,97065.77
2022-08-28T11:32:32.210Z,97059.90
2022-08-28T11:35:02.162Z,97060.77
2022-08-28T11:37:41.565Z,97060.24
2022-08-28T11:40:18.850Z,97060.84
2022-08-28T11:42:50.101Z,97065.20
2022-08-28T11:45:19.306Z,97066.59
2022-08-28T11:47:49.110Z,97066.48
2022-08-28T11:50:20.540Z,97065.36
2022-08-28T11:53:06.515Z,97063.61
2022-08-28T11:55:43.499Z,97063.37
2022-08-28T11:58:16.192Z,97061.35
2022-08-28T12:00:53.164Z,97062.52
2022-08-28T12:03:26.884Z,97064.41
2022-08-28T12:05:58.604Z,97058.90
2022-08-28T12:09:02.757Z,97058.79
2022-08-28T12:11:39.755Z,97057.50
2022-08-28T12:14:09.251Z,97057.92
2022-08-28T12:16:55.760Z,97059.88
2022-08-28T12:19:28.814Z,97054.59
2022-08-28T12:21:57.204Z,97055.58
2022-08-28T12:24:25.280Z,97053.61
2022-08-28T12:26:57.043Z,97049.65
2022-08-28T12:29:30.933Z,97050.91
2022-08-28T12:32:21.808Z,97048.97
2022-08-28T12:34:58.707Z,97048.65
2022-08-28T12:37:51.870Z,97047.21
2022-08-28T12:40:23.721Z,97046.48
2022-08-28T12:42:55.450Z,97044.05
2022-08-28T12:45:44.410Z,97049.63
2022-08-28T12:48:22.713Z,97045.95
2022-08-28T12:50:58.498Z,97046.83
2022-08-28T12:53:28.172Z,97043.05
2022-08-28T12:55:57.024Z,97043.60
2022-08-28T12:58:29.570Z,97042.51
2022-08-28T13:00:59.622Z,97039.19
2022-08-28T13:03:27.911Z,97039.30
2022-08-28T13:05:57.902Z,97044.20
2022-08-28T13:08:25.772Z,97046.83
2022-08-28T13:10:53.823Z,97050.21
2022-08-28T13:13:24.987Z,97050.24
2022-08-28T13:15:55.960Z,97052.66
2022-08-28T13:18:59.535Z,97052.87
2022-08-28T13:21:34.285Z,97052.59
2022-08-28T13:24:26.401Z,97051.31
2022-08-28T13:27:03.743Z,97051.65
2022-08-28T13:29:32.410Z,97051.14
2022-08-28T13:32:02.450Z,97054.64
2022-08-28T13:34:31.860Z,97056.91
2022-08-28T13:37:01.777Z,97058.34
2022-08-28T13:39:32.977Z,97058.82
2022-08-28T13:42:12.733Z,97056.07
2022-08-28T13:44:53.328Z,97054.15
2022-08-28T13:47:21.174Z,97051.58
2022-08-28T13:49:49.207Z,97050.17
2022-08-28T13:52:17.942Z,97049.15
2022-08-28T13:54:46.884Z,97053.10
2022-08-28T13:57:15.623Z,97049.73
2022-08-28T13:59:43.590Z,97048.77
2022-08-28T14:02:31.473Z,97046.19
2022-08-28T14:04:59.796Z,97041.11
2022-08-28T14:07:29.497Z,97035.13
2022-08-28T14:09:58.101Z,97032.19
2022-08-28T14:12:33.278Z,97030.94
2022-08-28T14:15:02.318Z,97027.45
2022-08-28T14:17:30.254Z,97023.44
2022-08-28T14:20:00.360Z,97026.10
2022-08-28T14:22:28.644Z,97023.07
2022-08-28T14:24:57.080Z,97024.05
2022-08-28T14:27:25.035Z,97033.11
2022-08-28T14:29:53.534Z,97034.76
2022-08-28T14:32:21.414Z,97032.31
2022-08-28T14:34:50.755Z,97028.45
2022-08-28T14:37:19.426Z,97029.06
2022-08-28T14:39:48.341Z,97027.48
2022-08-28T14:42:16.376Z,97029.27
2022-08-28T14:44:44.207Z,97026.20
2022-08-28T14:47:14.442Z,97022.08
2022-08-28T14:49:44.296Z,97018.25
2022-08-28T14:52:14.883Z,97017.13
2022-08-28T14:54:42.765Z,97017.27
2022-08-28T14:57:12.144Z,97015.18
2022-08-28T14:59:40.253Z,97018.93
2022-08-28T15:02:08.531Z,97016.40
2022-08-28T15:04:37.987Z,97017.41
2022-08-28T15:07:10.701Z,97019.00
2022-08-28T15:09:40.305Z,97016.77
2022-08-28T15:12:10.730Z,97014.15
2022-08-28T15:14:39.043Z,97014.98
2022-08-28T15:17:07.177Z,97016.40
2022-08-28T15:19:35.209Z,97017.65
2022-08-28T15:22:04.407Z,97021.99
2022-08-28T15:24:34.525Z,97024.69
2022-08-28T15:27:03.416Z,97024.59
2022-08-28T15:29:31.483Z,97023.39
2022-08-28T15:32:00.717Z,97021.40
2022-08-28T15:34:29.006Z,97022.56
2022-08-28T15:36:57.999Z,97023.96
2022-08-28T15:39:45.044Z,97027.23
2022-08-28T15:42:13.651Z,97026.79
2022-08-28T15:44:42.073Z,97024.39
2022-08-28T15:47:10.446Z,97021.73
2022-08-28T15:49:43.468Z,97020.63
2022-08-28T15:52:16.841Z,97019.40
2022-08-28T15:54:44.668Z,97021.09
2022-08-28T15:57:12.578Z,97025.02
2022-08-28T15:59:49.552Z,97026.27
2022-08-28T16:02:21.499Z,97026.44
2022-08-28T16:04:50.441Z,97027.14
2022-08-28T16:07:19.190Z,97027.12
2022-08-28T16:09:47.143Z,97030.65
2022-08-28T16:12:15.660Z,97028.84
2022-08-28T16:14:43.835Z,97025.79
2022-08-28T16:17:11.905Z,97024.39
2022-08-28T16:19:40.287Z,97024.81
2022-08-28T16:22:09.192Z,97024.84
2022-08-28T16:24:37.051Z,97022.06
2022-08-28T16:27:06.430Z,97021.08
2022-08-28T16:29:37.729Z,97020.15
2022-08-28T16:32:05.874Z,97018.95
2022-08-28T16:34:34.935Z,97017.93
2022-08-28T16:37:04.844Z,97021.91
2022-08-28T16:39:42.326Z,97026.73
2022-08-28T16:42:10.623Z,97025.85
2022-08-28T16:44:39.105Z,97022.80
2022-08-28T16:47:07.225Z,97016.72
2022-08-28T16:49:35.512Z,97021.73
2022-08-28T16:52:03.686Z,97026.40
2022-08-28T16:54:32.427Z,97031.72
2022-08-28T16:57:00.493Z,97034.08
2022-08-28T16:59:28.410Z,97037.58
2022-08-28T17:01:56.266Z,97048.39
2022-08-28T17:04:26.107Z,97054.40
2022-08-28T17:06:57.777Z,97059.75
2022-08-28T17:09:27.296Z,97061.11
2022-08-28T17:11:55.737Z,97062.08
2022-08-28T17:14:25.249Z,97060.72
2022-08-28T17:16:53.623Z,97068.87
2022-08-28T17:19:23.306Z,97070.48
2022-08-28T17:22:10.021Z,97073.83
2022-08-28T17:24:38.164Z,97078.05
2022-08-28T17:27:07.007Z,97081.69
2022-08-28T17:29:35.115Z,97086.58
2022-08-28T17:32:05.285Z,97093.34
2022-08-28T17:34:33.481Z,97099.55
2022-08-28T17:37:01.853Z,97100.81
2022-08-28T17:39:29.874Z,97100.09
2022-08-28T17:41:57.766Z,97101.60
2022-08-28T17:44:26.173Z,97102.50
2022-08-28T17:46:54.160Z,97102.39
2022-08-28T17:49:22.873Z,97101.75
2022-08-28T17:51:51.312Z,97107.14
2022-08-28T17:54:21.563Z,97108.16
2022-08-28T17:56:49.970Z,97110.06
2022-08-28T17:59:18.371Z,97111.66
2022-08-28T18:01:46.908Z,97116.27
2022-08-28T18:04:19.055Z,97118.91
2022-08-28T18:06:51.830Z,97124.75
2022-08-28T18:09:20.259Z,97125.59
2022-08-28T18:11:48.629Z,97123.96
2022-08-28T18:14:16.642Z,97123.70
2022-08-28T18:16:45.011Z,97125.23
2022-08-28T18:19:13.775Z,97129.90
2022-08-28T18:21:41.641Z,97129.09
2022-08-28T18:24:13.137Z,97131.80
2022-08-28T18:26:42.621Z,97135.45
2022-08-28T18:29:12.052Z,97136.17
2022-08-28T18:31:40.761Z,97135.10
2022-08-28T18:34:10.911Z,97130.95
2022-08-28T18:36:43.501Z,97127.75
2022-08-28T18:39:11.446Z,97126.69
2022-08-28T18:41:43.989Z,97126.16
2022-08-28T18:44:14.098Z,97126.73
2022-08-28T18:46:42.783Z,97127.68
2022-08-28T18:49:11.476Z,97129.91
2022-08-28T18:51:40.242Z,97130.60
2022-08-28T18:54:08.098Z,97127.98
2022-08-28T18:56:38.293Z,97130.12
2022-08-28T18:59:07.248Z,97127.52
2022-08-28T19:01:35.398Z,97129.23
2022-08-28T19:04:03.472Z,97131.59
2022-08-28T19:06:31.611Z,97131.66
2022-08-28T19:08:59.736Z,97133.62
2022-08-28T19:11:29.183Z,97136.05
2022-08-28T19:13:57.322Z,97139.95
2022-08-28T19:16:25.318Z,97143.23
2022-08-28T19:18:55.459Z,97142.66
2022-08-28T19:21:23.379Z,97144.67
2022-08-28T19:23:55.839Z,97145.27
2022-08-28T19:26:27.747Z,97146.56
2022-08-28T19:28:56.629Z,97149.84
2022-08-28T19:31:25.388Z,97151.85
2022-08-28T19:33:53.775Z,97152.05
2022-08-28T19:36:21.862Z,97157.51
2022-08-28T19:38:50.638Z,97162.98
2022-08-28T19:41:18.451Z,97168.27
2022-08-28T19:43:46.499Z,97170.83
2022-08-28T19:46:19.467Z,97174.79
2022-08-28T19:48:52.480Z,97175.62
2022-08-28T19:51:22.606Z,97174.02
2022-08-28T19:53:57.255Z,97172.49
2022-08-28T19:56:28.465Z,97175.95
2022-08-28T19:58:58.434Z,97179.05
2022-08-28T20:01:29.731Z,97178.31
2022-08-28T20:03:59.154Z,97184.46
2022-08-28T20:06:28.113Z,97184.89
2022-08-28T20:08:56.096Z,97185.79
2022-08-28T20:11:30.117Z,97190.67
2022-08-28T20:14:03.902Z,97190.16
2022-08-28T20:16:34.379Z,97185.41
2022-08-28T20:19:03.232Z,97188.51
2022-08-28T20:21:37.696Z,97190.73
2022-08-28T20:24:08.696Z,97193.73
2022-08-28T20:26:37.165Z,97195.56
2022-08-28T20:29:06.859Z,97195.98
2022-08-28T20:31:35.261Z,97197.44
2022-08-28T20:34:03.533Z,97198.41
2022-08-28T20:36:31.483Z,97200.02
2022-08-28T20:39:00.199Z,97200.75
2022-08-28T20:41:28.650Z,97205.16
2022-08-28T20:43:57.045Z,97205.83
2022-08-28T20:46:25.623Z,97209.98
2022-08-28T20:48:53.614Z,97209.61
2022-08-28T20:51:41.474Z,97211.98
2022-08-28T20:54:09.644Z,97218.04
2022-08-28T20:56:37.875Z,97223.08
2022-08-28T20:59:06.215Z,97224.91
2022-08-28T21:01:34.337Z,97223.69
2022-08-28T21:04:02.389Z,97223.24
2022-08-28T21:06:31.312Z,97219.83
2022-08-28T21:08:59.448Z,97218.36
2022-08-28T21:11:27.824Z,97218.08
2022-08-28T21:13:55.940Z,97218.51
2022-08-28T21:16:24.475Z,97218.06
2022-08-28T21:19:14.506Z,97219.65
2022-08-28T21:21:41.302Z,97220.89
2022-08-28T21:24:11.148Z,97220.05
2022-08-28T21:26:46.769Z,97220.92
2022-08-28T21:29:15.599Z,97219.60
2022-08-28T21:31:44.811Z,97222.07
2022-08-28T21:34:12.669Z,97224.06
2022-08-28T21:36:45.863Z,97224.95
2022-08-28T21:39:16.173Z,97226.87
2022-08-28T21:41:44.265Z,97227.94
2022-08-28T21:44:12.456Z,97227.02
2022-08-28T21:46:41.120Z,97224.47
2022-08-28T21:49:09.247Z,97222.97
2022-08-28T21:51:37.163Z,97223.84
2022-08-28T21:54:05.048Z,97222.20
2022-08-28T21:56:32.879Z,97221.99
2022-08-28T21:59:01.719Z,97225.71
2022-08-28T22:01:29.696Z,97227.81
2022-08-28T22:03:57.689Z,97228.16
2022-08-28T22:06:26.468Z,97227.50
2022-08-28T22:08:55.031Z,97227.73
2022-08-28T22:11:25.157Z,97231.68
2022-08-28T22:13:54.282Z,97235.48
2022-08-28T22:16:22.792Z,97235.86
2022-08-28T22:18:51.275Z,97234.65
2022-08-28T22:21:39.319Z,97237.01
2022-08-28T22:24:07.493Z,97240.05
2022-08-28T22:26:35.465Z,97237.67
2022-08-28T22:29:03.820Z,97235.02
2022-08-28T22:31:32.523Z,97230.77
2022-08-28T22:34:01.934Z,97226.27
2022-08-28T22:36:30.110Z,97221.80
2022-08-28T22:38:58.445Z,97220.98
2022-08-28T22:41:26.592Z,97218.38
2022-08-28T22:43:54.545Z,97214.20
2022-08-28T22:46:23.160Z,97212.60
2022-08-28T22:48:51.345Z,97213.73
2022-08-28T22:51:19.506Z,97212.07
2022-08-28T22:53:47.976Z,97214.08
2022-08-28T22:56:19.077Z,97217.09
2022-08-28T22:58:47.067Z,97218.63
2022-08-28T23:01:17.713Z,97221.17
2022-08-28T23:03:46.359Z,97217.37
2022-08-28T23:06:14.627Z,97215.44
2022-08-28T23:08:42.797Z,97216.83
2022-08-28T23:11:11.260Z,97215.05
2022-08-28T23:13:39.816Z,97218.70
2022-08-28T23:16:08.318Z,97215.13
2022-08-28T23:19:06.778Z,97216.35
2022-08-28T23:21:26.402Z,97218.64
2022-08-28T23:23:55.246Z,97221.80
2022-08-28T23:26:23.827Z,97222.46
2022-08-28T23:28:52.266Z,97222.02
2022-08-28T23:31:20.233Z,97227.17
2022-08-28T23:33:49.992Z,97228.75
2022-08-28T23:36:19.087Z,97231.54
2022-08-28T23:38:46.984Z,97233.61
2022-08-28T23:41:16.768Z,97241.71
2022-08-28T23:43:45.249Z,97248.30
2022-08-28T23:46:17.110Z,97256.60
2022-08-28T23:48:45.736Z,97257.09
2022-08-28T23:51:17.982Z,97252.27
2022-08-28T23:53:46.164Z,97253.94
2022-08-28T23:56:15.974Z,97258.82
2022-08-28T23:58:45.210Z,97256.11
